Time;durP1;ratioP1;P1;durP2;ratioP2;P2;SDS_P1;SDS_P2;PMS_P1;PMS_P2;Temp;Humidity;BMP_temperature;BMP_pressure;BME280_temperature;BME280_humidity;BME280_pressure;Samples;Min_cycle;Max_cycle;Signal;HPM_P1;HPM_P2
2022/04/19 00:00:51;;;;;;;3.83;3.43;;;;;4.80;95985.00;;;;8278564;28;20232;-72
2022/04/19 00:04:58;;;;;;;4.07;3.67;;;;;4.60;95990.00;;;;8274461;28;20315;-72
2022/04/19 00:09:01;;;;;;;6.87;4.07;;;;;4.50;95977.00;;;;8276924;28;20234;-71
2022/04/19 00:13:06;;;;;;;4.67;3.93;;;;;4.60;95971.00;;;;8283352;28;20389;-71
2022/04/19 00:17:11;;;;;;;4.43;3.57;;;;;4.80;95971.00;;;;8280649;28;20253;-71
2022/04/19 00:21:14;;;;;;;5.27;3.50;;;;;4.80;95975.00;;;;8271955;28;20231;-73
2022/04/19 00:25:18;;;;;;;4.27;3.40;;;;;4.80;95970.00;;;;8281106;28;20239;-72
2022/04/19 00:29:21;;;;;;;3.70;3.40;;;;;4.70;95961.00;;;;8272984;28;20221;-72
2022/04/19 00:33:27;;;;;;;4.57;3.50;;;;;4.70;95966.00;;;;8273392;28;20237;-73
2022/04/19 00:37:30;;;;;;;4.10;3.70;;;;;4.60;95958.00;;;;8272801;28;20244;-73
2022/04/19 00:41:33;;;;;;;6.00;3.73;;;;;4.40;95949.00;;;;8269572;28;20281;-71
2022/04/19 00:45:36;;;;;;;5.43;3.93;;;;;4.20;95942.00;;;;8275102;28;20243;-71
2022/04/19 00:49:43;;;;;;;9.07;4.50;;;;;4.10;95939.00;;;;8269603;28;20258;-71
2022/04/19 00:53:47;;;;;;;6.37;3.80;;;;;4.00;95941.00;;;;8269574;28;20316;-72
2022/04/19 00:57:52;;;;;;;8.43;3.97;;;;;3.90;95939.00;;;;8278371;28;20230;-72
2022/04/19 01:01:55;;;;;;;4.87;3.90;;;;;3.70;95935.00;;;;8273752;28;20856;-72
2022/04/19 01:06:00;;;;;;;4.60;3.90;;;;;3.60;95921.00;;;;8284014;28;20242;-71
2022/04/19 01:10:04;;;;;;;4.60;3.80;;;;;3.50;95914.00;;;;8284085;28;20642;-71
2022/04/19 01:14:07;;;;;;;5.17;3.77;;;;;3.40;95914.00;;;;8272953;28;20705;-71
2022/04/19 01:18:11;;;;;;;4.60;4.03;;;;;3.40;95912.00;;;;8257771;28;20230;-72
2022/04/19 01:22:16;;;;;;;4.50;3.90;;;;;3.60;95913.00;;;;8273919;28;20320;-73
2022/04/19 01:26:22;;;;;;;5.73;4.03;;;;;3.70;95911.00;;;;8276576;28;20579;-72
2022/04/19 01:30:25;;;;;;;9.17;3.90;;;;;3.70;95906.00;;;;8274614;28;20317;-72
2022/04/19 01:34:28;;;;;;;4.63;4.00;;;;;3.70;95905.00;;;;8273016;28;20235;-73
2022/04/19 01:38:33;;;;;;;6.37;4.60;;;;;3.80;95904.00;;;;8277827;28;20709;-71
2022/04/19 01:42:36;;;;;;;8.23;4.40;;;;;3.80;95894.00;;;;8279245;28;20250;-72
2022/04/19 01:46:39;;;;;;;6.50;4.20;;;;;3.80;95887.00;;;;8271806;28;20511;-72
2022/04/19 01:50:43;;;;;;;6.60;4.30;;;;;3.80;95884.00;;;;8274027;28;20655;-73
2022/04/19 01:54:47;;;;;;;6.43;4.07;;;;;3.70;95878.00;;;;8275396;28;20276;-72
2022/04/19 01:58:50;;;;;;;5.13;4.20;;;;;3.60;95875.00;;;;8265139;28;20238;-72
2022/04/19 02:02:55;;;;;;;6.63;4.20;;;;;3.60;95872.00;;;;8268644;28;20325;-71
2022/04/19 02:06:58;;;;;;;4.53;3.83;;;;;3.50;95870.00;;;;8262313;28;20223;-71
2022/04/19 02:11:03;;;;;;;5.13;4.23;;;;;3.50;95873.00;;;;8269108;28;20631;-72
2022/04/19 02:15:07;;;;;;;6.17;3.87;;;;;3.40;95873.00;;;;8269806;28;20325;-69
2022/04/19 02:19:10;;;;;;;6.00;4.40;;;;;3.20;95874.00;;;;8271518;28;20225;-73
2022/04/19 02:23:14;;;;;;;4.50;3.83;;;;;3.10;95865.00;;;;8262131;28;20369;-71
2022/04/19 02:27:18;;;;;;;5.60;4.47;;;;;3.00;95862.00;;;;8269728;28;20228;-70
2022/04/19 02:31:21;;;;;;;6.47;4.30;;;;;2.80;95857.00;;;;8272361;28;20232;-71
2022/04/19 02:35:27;;;;;;;7.57;4.60;;;;;2.70;95863.00;;;;8270200;28;20248;-72
2022/04/19 02:39:30;;;;;;;5.60;4.17;;;;;2.60;95852.00;;;;8272738;28;20749;-72
2022/04/19 02:43:35;;;;;;;5.17;4.17;;;;;2.50;95861.00;;;;8278240;28;20731;-72
2022/04/19 02:47:38;;;;;;;9.67;4.87;;;;;2.50;95858.00;;;;8275849;28;20677;-73
2022/04/19 02:51:41;;;;;;;7.63;4.40;;;;;2.50;95851.00;;;;8278625;28;20320;-74
2022/04/19 02:55:45;;;;;;;6.03;4.50;;;;;2.50;95849.00;;;;8282013;28;20237;-72
2022/04/19 02:59:50;;;;;;;8.27;4.40;;;;;2.40;95850.00;;;;8272656;28;20309;-71
2022/04/19 03:03:53;;;;;;;7.30;4.77;;;;;2.40;95841.00;;;;8317279;23;20232;-72
2022/04/19 03:07:57;;;;;;;8.40;5.00;;;;;2.30;95841.00;;;;8311377;28;20225;-71
2022/04/19 03:12:00;;;;;;;11.27;4.93;;;;;2.30;95847.00;;;;8318047;28;20248;-71
2022/04/19 03:16:05;;;;;;;6.20;4.63;;;;;2.20;95843.00;;;;8323804;28;20275;-72
2022/04/19 03:20:11;;;;;;;5.97;5.00;;;;;2.30;95849.00;;;;8323858;28;20311;-71
2022/04/19 03:28:35;;;;;;;6.40;4.93;;;;;2.20;95842.00;;;;8321770;28;20326;-71
2022/04/19 03:32:39;;;;;;;7.60;5.33;;;;;2.10;95844.00;;;;8319873;28;20233;-71
2022/04/19 03:36:44;;;;;;;7.03;5.03;;;;;2.00;95839.00;;;;8328119;28;20308;-70
2022/04/19 03:40:47;;;;;;;5.83;4.73;;;;;2.00;95833.00;;;;8315804;28;20231;-72
2022/04/19 03:44:50;;;;;;;8.07;5.10;;;;;1.90;95834.00;;;;8319529;28;20236;-73
2022/04/19 03:48:56;;;;;;;6.10;4.70;;;;;1.90;95832.00;;;;8313555;28;20745;-71
2022/04/19 03:52:59;;;;;;;5.83;4.63;;;;;1.70;95827.00;;;;8318156;28;20231;-73
2022/04/19 03:57:04;;;;;;;8.33;5.13;;;;;1.60;95831.00;;;;8317380;28;20308;-72
2022/04/19 04:01:07;;;;;;;9.53;5.23;;;;;1.60;95835.00;;;;8319686;28;20852;-72
2022/04/19 04:05:11;;;;;;;7.43;4.87;;;;;1.50;95823.00;;;;8348530;28;20618;-72
2022/04/19 04:09:15;;;;;;;6.50;4.97;;;;;1.40;95836.00;;;;8340893;28;20238;-71
2022/04/19 04:13:18;;;;;;;7.67;5.00;;;;;1.40;95832.00;;;;8338746;28;20232;-71
2022/04/19 04:17:24;;;;;;;7.40;5.03;;;;;1.40;95841.00;;;;8329926;28;21039;-71
2022/04/19 04:21:29;;;;;;;6.53;4.80;;;;;1.40;95837.00;;;;8301580;28;20237;-70
2022/04/19 04:25:32;;;;;;;7.90;5.30;;;;;1.40;95833.00;;;;8302273;28;20233;-70
2022/04/19 04:29:36;;;;;;;7.27;4.80;;;;;1.40;95834.00;;;;8307472;28;20747;-69
2022/04/19 04:33:39;;;;;;;6.60;5.07;;;;;1.30;95831.00;;;;8318638;28;20223;-69
2022/04/19 04:37:44;;;;;;;8.40;5.43;;;;;1.40;95829.00;;;;8331556;28;20304;-69
2022/04/19 04:41:47;;;;;;;10.53;5.83;;;;;1.40;95832.00;;;;8328316;28;20220;-69
2022/04/19 04:49:35;;;;;;;6.23;4.30;;;;;1.40;95837.00;;;;8336375;28;20225;-72
2022/04/19 04:50:13;;;;;;;7.87;4.87;;;;;1.40;95828.00;;;;8331376;28;20295;-70
2022/04/19 04:54:18;;;;;;;8.13;4.73;;;;;1.50;95828.00;;;;8345987;28;20224;-71
2022/04/19 04:58:21;;;;;;;9.30;4.93;;;;;1.60;95829.00;;;;8346633;28;20592;-69
2022/04/19 05:02:25;;;;;;;12.30;5.30;;;;;1.60;95827.00;;;;8342540;28;20241;-70
2022/04/19 05:06:28;;;;;;;7.43;5.03;;;;;1.80;95822.00;;;;8338875;28;20229;-69
2022/04/19 05:10:33;;;;;;;10.53;5.43;;;;;1.90;95820.00;;;;8332480;28;20228;-69
2022/04/19 05:14:36;;;;;;;8.03;5.60;;;;;2.00;95825.00;;;;8345344;28;20232;-69
2022/04/19 05:18:39;;;;;;;10.57;5.27;;;;;2.10;95835.00;;;;8332187;28;20295;-70
2022/04/19 05:22:43;;;;;;;6.23;4.63;;;;;2.20;95830.00;;;;8344925;28;20233;-70
2022/04/19 05:26:47;;;;;;;6.60;5.20;;;;;2.30;95833.00;;;;8333287;28;20705;-71
2022/04/19 05:30:50;;;;;;;13.40;5.77;;;;;2.40;95833.00;;;;8342680;28;21049;-70
2022/04/19 05:34:54;;;;;;;10.23;5.10;;;;;2.60;95840.00;;;;8344410;28;20224;-70
2022/04/19 05:38:58;;;;;;;8.73;5.00;;;;;2.70;95839.00;;;;8339584;28;20220;-69
2022/04/19 05:43:03;;;;;;;7.70;5.27;;;;;3.00;95830.00;;;;8338570;28;20259;-70
2022/04/19 05:47:07;;;;;;;9.63;5.50;;;;;3.30;95839.00;;;;8336480;28;20232;-70
2022/04/19 05:51:10;;;;;;;11.93;5.30;;;;;3.60;95833.00;;;;8344870;28;20979;-70
2022/04/19 05:55:13;;;;;;;8.83;5.70;;;;;3.80;95837.00;;;;8341897;28;20216;-71
2022/04/19 05:59:18;;;;;;;8.37;5.87;;;;;4.10;95835.00;;;;8326430;28;20685;-70
2022/04/19 06:07:45;;;;;;;11.50;5.83;;;;;4.60;95837.00;;;;8339157;28;20263;-71
2022/04/19 06:11:49;;;;;;;8.70;5.50;;;;;4.90;95839.00;;;;8339354;28;20300;-71
2022/04/19 06:15:53;;;;;;;10.37;5.83;;;;;5.30;95833.00;;;;8343720;28;20232;-71
2022/04/19 06:19:56;;;;;;;9.13;5.83;;;;;5.70;95837.00;;;;8347904;28;20235;-70
2022/04/19 06:24:03;;;;;;;7.67;5.30;;;;;6.20;95846.00;;;;8351207;28;20324;-71
2022/04/19 06:28:06;;;;;;;11.30;4.90;;;;;6.60;95837.00;;;;8338628;28;20231;-70
2022/04/19 06:32:12;;;;;;;5.90;5.17;;;;;6.90;95837.00;;;;8341122;28;21054;-70
2022/04/19 06:36:16;;;;;;;7.73;4.73;;;;;7.10;95837.00;;;;8342544;28;20220;-70
2022/04/19 06:40:20;;;;;;;8.90;5.07;;;;;7.30;95840.00;;;;8343594;28;20244;-70
2022/04/19 06:44:23;;;;;;;15.20;11.97;;;;;7.60;95842.00;;;;8342320;28;20228;-71
2022/04/19 06:48:29;;;;;;;9.57;6.90;;;;;8.00;95831.00;;;;8337322;28;20232;-72
2022/04/19 06:52:32;;;;;;;14.70;5.87;;;;;8.30;95835.00;;;;8350754;28;20715;-71
2022/04/19 06:56:35;;;;;;;7.47;4.77;;;;;8.60;95835.00;;;;8347222;28;20235;-71
2022/04/19 07:00:39;;;;;;;9.50;4.73;;;;;9.00;95839.00;;;;8340743;28;20231;-73
2022/04/19 07:04:44;;;;;;;9.43;4.70;;;;;9.30;95842.00;;;;8342195;28;20230;-71
2022/04/19 07:08:47;;;;;;;7.53;4.10;;;;;9.70;95834.00;;;;8342773;28;20221;-71
2022/04/19 07:12:51;;;;;;;8.43;4.70;;;;;10.00;95835.00;;;;8337050;28;20228;-72
2022/04/19 07:16:54;;;;;;;5.17;4.43;;;;;10.40;95836.00;;;;8335406;28;20237;-71
2022/04/19 07:29:40;;;;;;;6.53;3.83;;;;;11.60;95834.00;;;;8338773;28;20259;-72
2022/04/19 07:33:43;;;;;;;5.40;3.73;;;;;12.00;95826.00;;;;8347857;28;20240;-70
2022/04/19 07:37:48;;;;;;;4.32;3.65;;;;;12.40;95824.00;;;;8340538;28;20336;-71
2022/04/19 07:41:53;;;;;;;5.15;3.85;;;;;12.80;95828.00;;;;8345029;28;20232;-71
2022/04/19 07:45:57;;;;;;;7.10;3.75;;;;;13.00;95830.00;;;;8333917;28;20247;-74
2022/04/19 07:50:00;;;;;;;5.75;3.85;;;;;13.20;95830.00;;;;8344416;28;20319;-70
2022/04/19 07:54:05;;;;;;;3.70;3.33;;;;;13.50;95825.00;;;;8323826;28;20232;-73
2022/04/19 07:58:08;;;;;;;6.32;3.97;;;;;13.90;95812.00;;;;8341306;28;20274;-70
2022/04/19 08:02:12;;;;;;;3.80;3.40;;;;;14.20;95814.00;;;;8340538;28;20902;-72
2022/04/19 08:06:15;;;;;;;4.03;3.45;;;;;14.30;95822.00;;;;8335601;28;20291;-71
2022/04/19 08:10:20;;;;;;;5.72;3.92;;;;;14.50;95818.00;;;;8336140;28;20256;-71
2022/04/19 08:14:25;;;;;;;8.02;3.30;;;;;14.80;95819.00;;;;8340796;28;20223;-72
2022/04/19 08:18:29;;;;;;;6.43;3.60;;;;;15.40;95820.00;;;;8331857;28;20227;-70
2022/04/19 08:22:33;;;;;;;4.22;3.38;;;;;15.70;95812.00;;;;8341668;28;22555;-71
2022/04/19 08:26:37;;;;;;;4.00;3.38;;;;;15.70;95811.00;;;;8333762;28;20237;-71
2022/04/19 08:30:40;;;;;;;3.50;3.20;;;;;16.00;95804.00;;;;8341438;28;20223;-71
2022/04/19 08:34:45;;;;;;;5.47;3.92;;;;;16.90;95801.00;;;;8337853;28;20312;-71
2022/04/19 08:38:48;;;;;;;6.53;3.38;;;;;17.60;95799.00;;;;8339042;28;20550;-71
2022/04/19 08:42:53;;;;;;;3.90;3.50;;;;;18.50;95803.00;;;;8330566;28;20231;-71
2022/04/19 08:46:59;;;;;;;3.88;3.40;;;;;18.90;95798.00;;;;8337780;28;20329;-70
2022/04/19 08:51:04;;;;;;;4.68;3.75;;;;;18.30;95801.00;;;;8333158;28;20236;-70
2022/04/19 08:59:32;;;;;;;4.43;3.47;;;;;17.70;95805.00;;;;8344068;28;20377;-71
2022/04/19 09:03:35;;;;;;;6.25;3.63;;;;;17.20;95797.00;;;;8334322;28;20232;-71
2022/04/19 09:07:39;;;;;;;5.65;3.78;;;;;17.10;95786.00;;;;8331752;28;20283;-74
2022/04/19 09:11:43;;;;;;;8.90;3.88;;;;;16.60;95794.00;;;;8329609;28;20280;-75
2022/04/19 09:15:48;;;;;;;4.07;3.67;;;;;16.30;95789.00;;;;8341540;28;20577;-75
2022/04/19 09:19:51;;;;;;;6.38;3.92;;;;;16.30;95793.00;;;;8333854;28;20235;-74
2022/04/19 09:23:55;;;;;;;4.43;3.72;;;;;16.90;95787.00;;;;8337112;28;20224;-75
2022/04/19 09:27:59;;;;;;;4.45;3.40;;;;;17.20;95787.00;;;;8335847;28;20231;-76
2022/04/19 09:32:12;;;;;;;3.30;2.97;;;;;17.60;95791.00;;;;8344134;28;20300;-75
2022/04/19 09:36:27;;;;;;;5.03;3.63;;;;;17.80;95786.00;;;;8333918;28;20235;-75
2022/04/19 09:40:33;;;;;;;6.80;3.55;;;;;17.70;95789.00;;;;8325020;28;20233;-74
2022/04/19 09:44:40;;;;;;;11.32;3.70;;;;;18.00;95787.00;;;;8334710;28;20233;-74
2022/04/19 09:48:48;;;;;;;4.65;3.40;;;;;18.40;95773.00;;;;8338622;28;20312;-73
2022/04/19 09:52:52;;;;;;;5.32;3.33;;;;;18.30;95775.00;;;;8333701;28;20225;-75
2022/04/19 09:56:55;;;;;;;5.63;3.72;;;;;18.80;95773.00;;;;8335874;28;20235;-72
2022/04/19 10:00:58;;;;;;;3.83;3.20;;;;;18.60;95762.00;;;;8335813;28;20236;-72
2022/04/19 10:09:25;;;;;;;4.13;3.33;;;;;17.40;95756.00;;;;8337188;28;20593;-72
2022/04/19 10:13:29;;;;;;;7.95;3.72;;;;;17.60;95764.00;;;;8330302;28;20225;-73
2022/04/19 10:17:37;;;;;;;3.90;3.30;;;;;18.30;95763.00;;;;8340615;28;20232;-71
2022/04/19 10:21:43;;;;;;;3.95;3.65;;;;;18.80;95776.00;;;;8331060;28;20775;-70
2022/04/19 10:25:48;;;;;;;4.45;3.42;;;;;18.50;95757.00;;;;8334984;28;20236;-71
2022/04/19 10:29:52;;;;;;;3.50;3.13;;;;;18.90;95760.00;;;;8329223;28;20650;-71
2022/04/19 10:33:55;;;;;;;3.50;2.80;;;;;18.90;95761.00;;;;8336153;28;20228;-72
2022/04/19 10:38:22;;;;;;;3.75;2.95;;;;;19.00;95745.00;;;;8340126;28;20242;-72
2022/04/19 10:42:32;;;;;;;2.75;2.50;;;;;19.40;95740.00;;;;8331912;28;20307;-73
2022/04/19 10:46:36;;;;;;;6.05;3.65;;;;;19.50;95730.00;;;;8334874;28;20221;-72
2022/04/19 10:50:40;;;;;;;4.78;3.40;;;;;19.20;95736.00;;;;8331805;28;20263;-73
2022/04/19 10:55:06;;;;;;;5.05;4.10;;;;;18.80;95731.00;;;;8332116;28;20644;-72
2022/04/19 10:59:21;;;;;;;6.85;3.42;;;;;18.80;95728.00;;;;8331841;28;20259;-71
2022/04/19 11:03:46;;;;;;;4.18;3.40;;;;;18.50;95737.00;;;;8337686;28;20228;-72
2022/04/19 11:07:50;;;;;;;6.70;2.97;;;;;18.60;95730.00;;;;8344887;28;20229;-71
2022/04/19 11:11:58;;;;;;;4.93;3.10;;;;;19.80;95711.00;;;;8335096;28;20320;-72
2022/04/19 11:16:07;;;;;;;3.47;3.10;;;;;20.30;95732.00;;;;8336573;28;20244;-72
2022/04/19 11:20:15;;;;;;;9.38;3.33;;;;;19.10;95722.00;;;;8333948;28;20259;-71
2022/04/19 11:24:57;;;;;;;6.93;2.90;;;;;18.40;95721.00;;;;8341063;28;20228;-71
2022/04/19 11:29:18;;;;;;;2.75;2.55;;;;;19.20;95717.00;;;;8341872;28;20312;-70
2022/04/19 11:33:22;;;;;;;4.07;2.80;;;;;18.90;95711.00;;;;8339360;28;20224;-69
2022/04/19 11:37:26;;;;;;;2.55;2.40;;;;;18.50;95711.00;;;;8342876;28;21001;-70
2022/04/19 11:50:25;;;;;;;2.40;2.20;;;;;18.30;95700.00;;;;8341055;28;20224;-70
2022/04/19 11:54:30;;;;;;;3.15;1.88;;;;;18.00;95687.00;;;;8343510;28;20229;-69
2022/04/19 11:58:33;;;;;;;1.80;1.70;;;;;18.00;95683.00;;;;8336938;28;20666;-70
2022/04/19 12:02:39;;;;;;;2.78;1.75;;;;;17.70;95690.00;;;;8326673;28;20237;-70
2022/04/19 12:06:47;;;;;;;4.30;2.05;;;;;17.10;95689.00;;;;8335672;28;20578;-72
2022/04/19 12:10:50;;;;;;;2.22;1.80;;;;;16.80;95692.00;;;;8328572;28;20231;-71
2022/04/19 12:14:54;;;;;;;2.20;1.80;;;;;16.80;95699.00;;;;8337424;28;20236;-71
2022/04/19 12:19:03;;;;;;;1.40;1.30;;;;;16.60;95695.00;;;;8333930;28;20224;-71
2022/04/19 12:23:17;;;;;;;1.70;1.60;;;;;16.40;95695.00;;;;8334297;28;20224;-71
2022/04/19 12:27:25;;;;;;;1.90;1.80;;;;;16.30;95687.00;;;;8334504;28;20290;-71
2022/04/19 12:31:33;;;;;;;1.80;1.70;;;;;16.50;95690.00;;;;8332488;28;20299;-70
2022/04/19 12:35:39;;;;;;;3.15;1.77;;;;;16.70;95681.00;;;;8333838;28;20227;-71
2022/04/19 12:39:56;;;;;;;1.58;1.48;;;;;17.00;95675.00;;;;8335586;28;20917;-72
2022/04/19 12:44:02;;;;;;;1.67;1.52;;;;;17.10;95673.00;;;;8333041;28;20224;-75
2022/04/19 12:48:07;;;;;;;6.80;2.00;;;;;17.10;95672.00;;;;8335704;28;20578;-75
2022/04/19 12:52:12;;;;;;;2.95;1.90;;;;;17.00;95662.00;;;;8335415;28;20641;-75
2022/04/19 12:56:16;;;;;;;2.97;1.85;;;;;17.30;95676.00;;;;8334365;28;20299;-74
2022/04/19 13:00:19;;;;;;;2.30;1.70;;;;;17.60;95661.00;;;;8334376;28;20252;-76
2022/04/19 13:04:22;;;;;;;4.28;2.03;;;;;17.70;95654.00;;;;8340302;28;20235;-75
2022/04/19 13:12:53;;;;;;;1.80;1.70;;;;;17.30;95656.00;;;;8333692;28;20637;-75
2022/04/19 13:16:56;;;;;;;2.25;2.10;;;;;17.20;95651.00;;;;8333637;28;20307;-74
2022/04/19 13:20:59;;;;;;;2.75;2.45;;;;;17.30;95646.00;;;;8339456;28;20229;-76
2022/04/19 13:25:04;;;;;;;2.00;1.90;;;;;17.40;95650.00;;;;8339786;28;20220;-76
2022/04/19 13:29:08;;;;;;;1.90;1.80;;;;;17.50;95638.00;;;;8335214;28;20681;-76
2022/04/19 13:33:12;;;;;;;3.80;1.95;;;;;17.70;95640.00;;;;8335449;28;20242;-76
2022/04/19 13:37:16;;;;;;;4.65;1.67;;;;;17.90;95643.00;;;;8338560;28;20604;-75
2022/04/19 13:41:21;;;;;;;2.38;1.33;;;;;17.70;95654.00;;;;8335491;28;20673;-77
2022/04/19 13:45:24;;;;;;;1.60;1.50;;;;;17.40;95643.00;;;;8333178;28;20694;-77
2022/04/19 13:49:28;;;;;;;2.13;1.65;;;;;17.30;95646.00;;;;8334964;28;20234;-76
2022/04/19 13:53:33;;;;;;;3.90;1.58;;;;;16.90;95646.00;;;;8334936;28;20232;-71
2022/04/19 13:57:38;;;;;;;1.90;1.73;;;;;16.50;95646.00;;;;8320690;28;20271;-71
2022/04/19 14:01:43;;;;;;;3.83;1.70;;;;;16.40;95653.00;;;;8332057;28;20332;-72
2022/04/19 14:05:47;;;;;;;3.95;1.83;;;;;16.50;95641.00;;;;8330507;28;20233;-72
2022/04/19 14:09:50;;;;;;;1.60;1.50;;;;;16.70;95651.00;;;;8331987;28;20256;-72
2022/04/19 14:13:54;;;;;;;5.40;2.53;;;;;16.90;95648.00;;;;8336263;28;20580;-72
2022/04/19 14:17:59;;;;;;;8.13;2.80;;;;;17.50;95653.00;;;;8327910;28;20234;-71
2022/04/19 14:22:05;;;;;;;5.22;1.80;;;;;17.40;95655.00;;;;8327476;28;20228;-71
2022/04/19 14:26:09;;;;;;;3.55;1.90;;;;;17.10;95651.00;;;;8334103;28;20315;-72
2022/04/19 14:34:46;;;;;;;5.93;2.22;;;;;17.30;95661.00;;;;8208932;28;20247;-69
2022/04/19 14:38:49;;;;;;;4.47;2.30;;;;;17.30;95669.00;;;;8327485;28;21016;-71
2022/04/19 14:42:52;;;;;;;3.25;1.90;;;;;17.10;95679.00;;;;8339323;28;20238;-70
2022/04/19 14:46:56;;;;;;;5.22;2.47;;;;;16.60;95665.00;;;;8345961;28;20286;-72
2022/04/19 14:55:21;;;;;;;5.90;2.95;;;;;16.60;95676.00;;;;8340512;28;20235;-72
2022/04/19 14:59:24;;;;;;;7.60;3.60;;;;;16.50;95681.00;;;;8339570;28;20238;-73
2022/04/19 15:03:29;;;;;;;10.10;3.60;;;;;16.20;95687.00;;;;8341246;28;20247;-73
2022/04/19 15:07:32;;;;;;;3.33;2.50;;;;;15.90;95690.00;;;;8342447;28;20604;-73
2022/04/19 15:11:35;;;;;;;6.97;3.05;;;;;15.60;95706.00;;;;8341414;28;20589;-71
2022/04/19 15:15:38;;;;;;;2.97;2.72;;;;;15.40;95707.00;;;;8340692;28;20688;-71
2022/04/19 15:19:43;;;;;;;3.70;3.28;;;;;15.30;95702.00;;;;8340060;28;20217;-73
2022/04/19 15:23:47;;;;;;;2.72;2.50;;;;;15.20;95704.00;;;;8332462;28;20227;-74
2022/04/19 15:27:50;;;;;;;5.50;2.78;;;;;15.00;95718.00;;;;8333655;28;21030;-75
2022/04/19 15:31:53;;;;;;;4.35;2.80;;;;;15.10;95720.00;;;;8347389;28;20223;-75
2022/04/19 15:35:58;;;;;;;2.40;2.20;;;;;15.30;95720.00;;;;8338751;28;20236;-76
2022/04/19 15:40:01;;;;;;;8.50;3.60;;;;;15.00;95731.00;;;;8345749;28;20230;-74
2022/04/19 15:44:05;;;;;;;8.35;3.17;;;;;14.70;95735.00;;;;8348655;28;20236;-73
2022/04/19 15:48:10;;;;;;;9.50;2.92;;;;;14.50;95724.00;;;;8344439;28;20235;-72
2022/04/19 15:52:15;;;;;;;4.25;2.85;;;;;14.40;95729.00;;;;8343576;28;20219;-73
2022/04/19 15:56:21;;;;;;;6.03;2.42;;;;;14.20;95732.00;;;;8342774;28;20229;-72
2022/04/19 16:00:26;;;;;;;2.80;2.38;;;;;14.10;95740.00;;;;8342976;28;20239;-73
2022/04/19 16:04:31;;;;;;;4.10;2.40;;;;;14.10;95740.00;;;;8341233;28;20589;-74
2022/04/19 16:08:35;;;;;;;5.45;3.00;;;;;14.10;95744.00;;;;8340699;28;20235;-73
2022/04/19 16:12:45;;;;;;;2.70;2.50;;;;;14.70;95756.00;;;;8336542;28;20310;-73
2022/04/19 16:25:37;;;;;;;2.80;2.38;;;;;14.30;95766.00;;;;8285194;28;20858;-74
2022/04/19 16:29:40;;;;;;;4.70;2.33;;;;;14.50;95753.00;;;;8338311;28;20331;-73
2022/04/19 16:33:43;;;;;;;2.90;2.58;;;;;14.90;95769.00;;;;8329087;28;20240;-74
2022/04/19 16:37:46;;;;;;;3.85;2.50;;;;;15.20;95768.00;;;;8335128;28;20227;-75
2022/04/19 16:41:51;;;;;;;2.20;2.00;;;;;14.90;95775.00;;;;8334999;28;20228;-75
2022/04/19 16:45:54;;;;;;;3.33;2.17;;;;;14.50;95780.00;;;;8334091;28;20238;-73
2022/04/19 16:50:00;;;;;;;2.05;1.95;;;;;14.20;95777.00;;;;8337462;28;20230;-72
2022/04/19 16:54:03;;;;;;;2.35;1.85;;;;;13.80;95787.00;;;;8342455;28;20807;-74
2022/04/19 16:58:08;;;;;;;5.28;2.65;;;;;13.50;95789.00;;;;8334082;28;20341;-72
2022/04/19 17:02:11;;;;;;;3.40;2.83;;;;;13.60;95791.00;;;;8335749;28;20705;-76
2022/04/19 17:06:15;;;;;;;4.93;2.63;;;;;14.20;95801.00;;;;8331692;28;20230;-73
2022/04/19 17:10:18;;;;;;;6.80;2.70;;;;;14.60;95801.00;;;;8334198;28;20586;-74
2022/04/19 17:14:23;;;;;;;4.50;2.70;;;;;14.60;95816.00;;;;8323241;28;20310;-73
2022/04/19 17:18:29;;;;;;;5.35;2.60;;;;;14.10;95814.00;;;;8326217;28;20268;-73
2022/04/19 17:22:33;;;;;;;2.83;2.53;;;;;13.60;95824.00;;;;8336859;28;20629;-74
2022/04/19 17:26:37;;;;;;;3.95;2.15;;;;;13.30;95828.00;;;;8332813;28;20233;-75
2022/04/19 17:30:42;;;;;;;2.85;1.90;;;;;13.00;95824.00;;;;8337471;28;20228;-73
2022/04/19 17:34:45;;;;;;;3.47;2.53;;;;;12.80;95857.00;;;;8334746;28;20226;-72
2022/04/19 17:38:48;;;;;;;4.85;2.50;;;;;12.50;95871.00;;;;8332807;28;20950;-74
2022/04/19 17:42:52;;;;;;;3.17;2.67;;;;;12.20;95879.00;;;;8334480;28;20817;-75
2022/04/19 17:46:56;;;;;;;5.28;3.00;;;;;11.90;95884.00;;;;8335706;28;20268;-76
2022/04/19 17:59:46;;;;;;;5.10;2.65;;;;;11.20;95904.00;;;;8337122;28;20223;-74
2022/04/19 18:03:51;;;;;;;8.40;3.22;;;;;11.00;95911.00;;;;8331325;28;20377;-75
2022/04/19 18:07:54;;;;;;;8.60;3.10;;;;;10.80;95920.00;;;;8333316;28;20228;-76
2022/04/19 18:11:58;;;;;;;3.93;3.20;;;;;10.70;95927.00;;;;8338055;28;20669;-76
2022/04/19 18:16:01;;;;;;;3.37;2.87;;;;;10.50;95926.00;;;;8334292;28;20734;-75
2022/04/19 18:20:07;;;;;;;3.50;3.20;;;;;10.30;95942.00;;;;8333265;28;20229;-75
2022/04/19 18:28:31;;;;;;;4.27;3.07;;;;;10.00;95958.00;;;;8335419;28;20333;-76
2022/04/19 18:32:34;;;;;;;5.67;3.13;;;;;9.80;95977.00;;;;8332525;28;20860;-74
2022/04/19 18:36:39;;;;;;;4.83;3.13;;;;;9.70;95983.00;;;;8339567;28;20312;-75
2022/04/19 18:40:42;;;;;;;3.70;2.92;;;;;9.50;95993.00;;;;8339096;28;20231;-74
2022/04/19 18:44:46;;;;;;;3.80;3.37;;;;;9.40;96000.00;;;;8338503;28;20221;-71
2022/04/19 18:48:49;;;;;;;3.83;2.77;;;;;9.20;96010.00;;;;8338493;28;20323;-71
2022/04/19 18:52:54;;;;;;;4.67;2.60;;;;;9.10;96024.00;;;;8340255;28;20956;-72
2022/04/19 18:56:57;;;;;;;5.03;3.00;;;;;9.10;96031.00;;;;8338031;28;21484;-72
2022/04/19 19:01:01;;;;;;;4.03;2.90;;;;;9.00;96038.00;;;;8332502;28;21101;-71
2022/04/19 19:05:08;;;;;;;4.13;2.83;;;;;8.90;96046.00;;;;8340160;28;20259;-71
2022/04/19 19:09:14;;;;;;;4.93;3.10;;;;;8.80;96048.00;;;;8337550;28;20230;-76
2022/04/19 19:13:17;;;;;;;3.03;2.70;;;;;8.70;96061.00;;;;8322043;28;20694;-76
2022/04/19 19:17:20;;;;;;;3.63;2.77;;;;;8.60;96062.00;;;;8333113;28;20597;-75
2022/04/19 19:21:24;;;;;;;2.70;2.47;;;;;8.60;96064.00;;;;8338468;28;20308;-73
2022/04/19 19:25:30;;;;;;;4.20;2.40;;;;;8.50;96064.00;;;;8334802;28;20581;-75
2022/04/19 19:29:34;;;;;;;3.27;2.30;;;;;8.40;96073.00;;;;8338886;28;20236;-75
2022/04/19 19:33:37;;;;;;;6.77;2.80;;;;;8.30;96083.00;;;;8340938;28;20229;-75
2022/04/19 19:37:41;;;;;;;5.00;3.03;;;;;8.20;96097.00;;;;8341569;28;20319;-76
2022/04/19 19:41:45;;;;;;;6.37;2.70;;;;;8.10;96100.00;;;;8337809;28;20682;-77
2022/04/19 19:45:49;;;;;;;2.87;2.60;;;;;8.00;96101.00;;;;8333930;28;20227;-74
2022/04/19 19:49:53;;;;;;;5.30;2.63;;;;;7.90;96108.00;;;;8341015;28;20224;-74
2022/04/19 19:53:56;;;;;;;2.90;2.40;;;;;7.80;96103.00;;;;8343296;28;20229;-74
2022/04/19 19:58:01;;;;;;;3.77;2.50;;;;;7.70;96108.00;;;;8342991;28;20234;-75
2022/04/19 20:02:05;;;;;;;2.87;2.50;;;;;7.60;96119.00;;;;8340657;28;20228;-75
2022/04/19 20:06:09;;;;;;;4.23;2.60;;;;;7.50;96117.00;;;;8333614;28;20286;-75
2022/04/19 20:10:12;;;;;;;3.10;2.80;;;;;7.40;96125.00;;;;8339261;28;20236;-75
2022/04/19 20:14:17;;;;;;;5.30;2.43;;;;;7.30;96130.00;;;;8345714;28;21032;-78
2022/04/19 20:18:20;;;;;;;2.73;2.50;;;;;7.20;96135.00;;;;8340894;28;20223;-76
2022/04/19 20:22:23;;;;;;;4.43;3.00;;;;;7.10;96129.00;;;;8343857;28;20230;-76
2022/04/19 20:26:26;;;;;;;2.77;2.47;;;;;7.00;96134.00;;;;8344746;28;20622;-76
2022/04/19 20:30:31;;;;;;;4.37;2.63;;;;;6.90;96132.00;;;;8342183;28;20581;-75
2022/04/19 20:34:34;;;;;;;3.93;2.70;;;;;6.70;96124.00;;;;8341566;28;20224;-76
2022/04/19 20:38:38;;;;;;;12.20;5.10;;;;;6.60;96128.00;;;;8338168;28;20314;-77
2022/04/19 20:42:41;;;;;;;4.50;2.77;;;;;6.50;96126.00;;;;8333489;28;21219;-76
2022/04/19 20:51:07;;;;;;;5.47;3.50;;;;;6.30;96122.00;;;;8324123;28;20952;-77
2022/04/19 20:55:11;;;;;;;5.13;2.97;;;;;5.90;96129.00;;;;8341657;28;20629;-77
2022/04/19 20:59:20;;;;;;;8.30;3.87;;;;;5.50;96123.00;;;;8346299;28;20228;-77
2022/04/19 21:03:25;;;;;;;4.90;2.97;;;;;5.20;96120.00;;;;8344619;28;20314;-76
2022/04/19 21:07:28;;;;;;;4.83;3.00;;;;;5.00;96114.00;;;;8342611;28;20282;-77
2022/04/19 21:11:31;;;;;;;4.63;3.43;;;;;4.90;96117.00;;;;8347173;28;20232;-77
2022/04/19 21:15:35;;;;;;;8.33;3.70;;;;;4.80;96114.00;;;;8345745;28;20283;-76
2022/04/19 21:19:39;;;;;;;3.27;3.00;;;;;4.60;96112.00;;;;8339552;28;20834;-76
2022/04/19 21:23:42;;;;;;;5.77;3.13;;;;;4.20;96117.00;;;;8345043;28;20224;-76
2022/04/19 21:27:46;;;;;;;3.83;3.20;;;;;4.00;96118.00;;;;8339844;28;20236;-74
2022/04/19 21:31:50;;;;;;;5.80;3.60;;;;;3.70;96123.00;;;;8339261;28;20691;-75
2022/04/19 21:35:55;;;;;;;4.03;3.20;;;;;3.50;96129.00;;;;8336874;28;20892;-76
2022/04/19 21:39:58;;;;;;;4.63;3.50;;;;;3.30;96128.00;;;;8344502;28;20224;-77
2022/04/19 21:44:01;;;;;;;6.17;3.90;;;;;3.00;96122.00;;;;8344995;28;20224;-77